sensor_id;sensor_type;location;lat;lon;timestamp;temperature;humidity
33717;DHT22;20046;50.746;7.072;2023-01-29T00:01:13;-2.70;99.90
33717;DHT22;20046;50.746;7.072;2023-01-29T00:03:39;-2.70;99.90
33717;DHT22;20046;50.746;7.072;2023-01-29T00:06:07;-2.70;99.90
33717;DHT22;20046;50.746;7.072;2023-01-29T00:08:34;-2.70;99.90
33717;DHT22;20046;50.746;7.072;2023-01-29T00:11:07;-2.70;99.90
33717;DHT22;20046;50.746;7.072;2023-01-29T00:13:33;-2.70;99.90
33717;DHT22;20046;50.746;7.072;2023-01-29T00:15:59;-2.70;99.90
33717;DHT22;20046;50.746;7.072;2023-01-29T00:18:26;-2.70;99.90
33717;DHT22;20046;50.746;7.072;2023-01-29T00:20:51;-2.80;99.90
33717;DHT22;20046;50.746;7.072;2023-01-29T00:23:17;-2.70;99.90
33717;DHT22;20046;50.746;7.072;2023-01-29T00:25:44;-2.80;99.90
33717;DHT22;20046;50.746;7.072;2023-01-29T00:28:10;-2.80;99.90
33717;DHT22;20046;50.746;7.072;2023-01-29T00:30:36;-2.80;99.90
33717;DHT22;20046;50.746;7.072;2023-01-29T00:33:02;-2.80;99.90
33717;DHT22;20046;50.746;7.072;2023-01-29T00:35:28;-2.90;99.90
33717;DHT22;20046;50.746;7.072;2023-01-29T00:37:55;-2.90;99.90
33717;DHT22;20046;50.746;7.072;2023-01-29T00:40:21;-2.90;99.90
33717;DHT22;20046;50.746;7.072;2023-01-29T00:42:47;-2.80;99.90
33717;DHT22;20046;50.746;7.072;2023-01-29T00:45:32;-2.90;99.90
33717;DHT22;20046;50.746;7.072;2023-01-29T00:47:58;-2.90;99.90
33717;DHT22;20046;50.746;7.072;2023-01-29T00:50:24;-2.90;99.90
33717;DHT22;20046;50.746;7.072;2023-01-29T00:52:50;-2.90;99.90
33717;DHT22;20046;50.746;7.072;2023-01-29T00:55:17;-2.90;99.90
33717;DHT22;20046;50.746;7.072;2023-01-29T00:57:42;-3.00;99.90
33717;DHT22;20046;50.746;7.072;2023-01-29T01:00:11;-3.00;99.90
33717;DHT22;20046;50.746;7.072;2023-01-29T01:02:37;-3.00;99.90
33717;DHT22;20046;50.746;7.072;2023-01-29T01:05:22;-3.00;99.90
33717;DHT22;20046;50.746;7.072;2023-01-29T01:07:50;-3.10;99.90
33717;DHT22;20046;50.746;7.072;2023-01-29T01:10:29;-3.10;99.90
33717;DHT22;20046;50.746;7.072;2023-01-29T01:13:05;-3.10;99.90
33717;DHT22;20046;50.746;7.072;2023-01-29T01:15:33;-3.10;99.90
33717;DHT22;20046;50.746;7.072;2023-01-29T01:18:00;-3.10;99.90
33717;DHT22;20046;50.746;7.072;2023-01-29T01:20:28;-3.10;99.90
33717;DHT22;20046;50.746;7.072;2023-01-29T01:22:54;-3.10;99.90
33717;DHT22;20046;50.746;7.072;2023-01-29T01:25:24;-3.10;99.90
33717;DHT22;20046;50.746;7.072;2023-01-29T01:27:54;-3.20;99.90
33717;DHT22;20046;50.746;7.072;2023-01-29T01:30:20;-3.20;99.90
33717;DHT22;20046;50.746;7.072;2023-01-29T01:32:46;-3.20;99.90
33717;DHT22;20046;50.746;7.072;2023-01-29T01:35:12;-3.20;99.90
33717;DHT22;20046;50.746;7.072;2023-01-29T01:37:40;-3.30;99.90
33717;DHT22;20046;50.746;7.072;2023-01-29T01:40:12;-3.30;99.90
33717;DHT22;20046;50.746;7.072;2023-01-29T01:42:43;-3.30;99.90
33717;DHT22;20046;50.746;7.072;2023-01-29T01:45:30;-3.30;99.90
33717;DHT22;20046;50.746;7.072;2023-01-29T01:48:16;-3.40;99.90
33717;DHT22;20046;50.746;7.072;2023-01-29T01:50:52;-3.40;99.90
33717;DHT22;20046;50.746;7.072;2023-01-29T01:53:24;-3.40;99.90
33717;DHT22;20046;50.746;7.072;2023-01-29T01:55:58;-3.40;99.90
33717;DHT22;20046;50.746;7.072;2023-01-29T01:58:29;-3.40;99.90
33717;DHT22;20046;50.746;7.072;2023-01-29T02:00:56;-3.40;99.90
33717;DHT22;20046;50.746;7.072;2023-01-29T02:03:23;-3.40;99.90
33717;DHT22;20046;50.746;7.072;2023-01-29T02:06:09;-3.40;99.90
33717;DHT22;20046;50.746;7.072;2023-01-29T02:08:57;-3.40;99.90
33717;DHT22;20046;50.746;7.072;2023-01-29T02:11:42;-3.40;99.90
33717;DHT22;20046;50.746;7.072;2023-01-29T02:14:08;-3.40;99.90
33717;DHT22;20046;50.746;7.072;2023-01-29T02:16:35;-3.50;99.90
33717;DHT22;20046;50.746;7.072;2023-01-29T02:19:02;-3.50;99.90
33717;DHT22;20046;50.746;7.072;2023-01-29T02:24:41;-3.50;99.90
33717;DHT22;20046;50.746;7.072;2023-01-29T02:27:23;-3.50;99.90
33717;DHT22;20046;50.746;7.072;2023-01-29T02:30:16;-3.50;99.90
33717;DHT22;20046;50.746;7.072;2023-01-29T02:35:41;-3.50;99.90
33717;DHT22;20046;50.746;7.072;2023-01-29T02:51:43;-3.60;99.90
33717;DHT22;20046;50.746;7.072;2023-01-29T02:54:20;-3.70;99.90
33717;DHT22;20046;50.746;7.072;2023-01-29T02:56:58;-3.70;99.90
33717;DHT22;20046;50.746;7.072;2023-01-29T02:59:32;-3.70;99.90
33717;DHT22;20046;50.746;7.072;2023-01-29T03:02:19;-3.70;99.90
33717;DHT22;20046;50.746;7.072;2023-01-29T03:04:56;-3.70;99.90
33717;DHT22;20046;50.746;7.072;2023-01-29T03:07:31;-3.70;99.90
33717;DHT22;20046;50.746;7.072;2023-01-29T03:10:21;-3.80;99.90
33717;DHT22;20046;50.746;7.072;2023-01-29T03:12:56;-3.80;99.90
33717;DHT22;20046;50.746;7.072;2023-01-29T03:15:39;-3.80;99.90
33717;DHT22;20046;50.746;7.072;2023-01-29T03:18:10;-3.80;99.90
33717;DHT22;20046;50.746;7.072;2023-01-29T03:20:43;-3.70;99.90
33717;DHT22;20046;50.746;7.072;2023-01-29T03:23:22;-3.70;99.90
33717;DHT22;20046;50.746;7.072;2023-01-29T03:25:54;-3.70;99.90
33717;DHT22;20046;50.746;7.072;2023-01-29T03:28:42;-3.70;99.90
33717;DHT22;20046;50.746;7.072;2023-01-29T03:31:28;-3.70;99.90
33717;DHT22;20046;50.746;7.072;2023-01-29T03:34:16;-3.70;99.90
33717;DHT22;20046;50.746;7.072;2023-01-29T03:36:57;-3.70;99.90
33717;DHT22;20046;50.746;7.072;2023-01-29T03:39:27;-3.70;99.90
33717;DHT22;20046;50.746;7.072;2023-01-29T03:42:01;-3.70;99.90
33717;DHT22;20046;50.746;7.072;2023-01-29T03:44:45;-3.70;99.90
33717;DHT22;20046;50.746;7.072;2023-01-29T03:58:38;-3.60;99.90
33717;DHT22;20046;50.746;7.072;2023-01-29T04:01:14;-3.60;99.90
33717;DHT22;20046;50.746;7.072;2023-01-29T04:04:08;-3.60;99.90
33717;DHT22;20046;50.746;7.072;2023-01-29T04:06:37;-3.70;99.90
33717;DHT22;20046;50.746;7.072;2023-01-29T04:09:16;-3.70;99.90
33717;DHT22;20046;50.746;7.072;2023-01-29T04:11:53;-3.70;99.90
33717;DHT22;20046;50.746;7.072;2023-01-29T04:14:20;-3.80;99.90
33717;DHT22;20046;50.746;7.072;2023-01-29T04:16:55;-3.80;99.90
33717;DHT22;20046;50.746;7.072;2023-01-29T04:19:22;-3.80;99.90
33717;DHT22;20046;50.746;7.072;2023-01-29T04:21:49;-3.80;99.90
33717;DHT22;20046;50.746;7.072;2023-01-29T04:24:16;-3.80;99.90
33717;DHT22;20046;50.746;7.072;2023-01-29T04:32:39;-3.80;99.90
33717;DHT22;20046;50.746;7.072;2023-01-29T04:46:28;-3.70;99.90
33717;DHT22;20046;50.746;7.072;2023-01-29T04:51:50;-3.80;99.90
33717;DHT22;20046;50.746;7.072;2023-01-29T04:54:23;-3.80;99.90
33717;DHT22;20046;50.746;7.072;2023-01-29T05:00:06;-3.80;99.90
33717;DHT22;20046;50.746;7.072;2023-01-29T05:02:37;-3.90;99.90
33717;DHT22;20046;50.746;7.072;2023-01-29T05:05:04;-3.90;99.90
33717;DHT22;20046;50.746;7.072;2023-01-29T05:07:33;-3.80;99.90
33717;DHT22;20046;50.746;7.072;2023-01-29T05:10:00;-3.80;99.90
33717;DHT22;20046;50.746;7.072;2023-01-29T05:12:28;-3.80;99.90
33717;DHT22;20046;50.746;7.072;2023-01-29T05:14:57;-3.80;99.90
33717;DHT22;20046;50.746;7.072;2023-01-29T05:17:25;-3.90;99.90
33717;DHT22;20046;50.746;7.072;2023-01-29T05:19:51;-3.90;99.90
33717;DHT22;20046;50.746;7.072;2023-01-29T05:22:17;-3.90;99.90
33717;DHT22;20046;50.746;7.072;2023-01-29T05:24:47;-4.00;99.90
33717;DHT22;20046;50.746;7.072;2023-01-29T05:27:31;-4.00;99.90
33717;DHT22;20046;50.746;7.072;2023-01-29T05:30:18;-4.00;99.90
33717;DHT22;20046;50.746;7.072;2023-01-29T05:32:43;-3.90;99.90
33717;DHT22;20046;50.746;7.072;2023-01-29T05:35:09;-3.90;99.90
33717;DHT22;20046;50.746;7.072;2023-01-29T05:37:34;-3.80;99.90
33717;DHT22;20046;50.746;7.072;2023-01-29T05:40:00;-3.70;99.90
33717;DHT22;20046;50.746;7.072;2023-01-29T05:42:25;-3.60;99.90
33717;DHT22;20046;50.746;7.072;2023-01-29T05:44:51;-3.60;99.90
33717;DHT22;20046;50.746;7.072;2023-01-29T05:47:20;-3.50;99.90
33717;DHT22;20046;50.746;7.072;2023-01-29T05:49:46;-3.40;99.90
33717;DHT22;20046;50.746;7.072;2023-01-29T05:52:11;-3.40;99.90
33717;DHT22;20046;50.746;7.072;2023-01-29T05:54:37;-3.40;99.90
33717;DHT22;20046;50.746;7.072;2023-01-29T05:57:03;-3.50;99.90
33717;DHT22;20046;50.746;7.072;2023-01-29T05:59:28;-3.40;99.90
33717;DHT22;20046;50.746;7.072;2023-01-29T06:01:56;-3.40;99.90
33717;DHT22;20046;50.746;7.072;2023-01-29T06:04:22;-3.40;99.90
33717;DHT22;20046;50.746;7.072;2023-01-29T06:06:47;-3.40;99.90
33717;DHT22;20046;50.746;7.072;2023-01-29T06:09:13;-3.30;99.90
33717;DHT22;20046;50.746;7.072;2023-01-29T06:11:39;-3.30;99.90
33717;DHT22;20046;50.746;7.072;2023-01-29T06:14:04;-3.30;99.90
33717;DHT22;20046;50.746;7.072;2023-01-29T06:16:30;-3.30;99.90
33717;DHT22;20046;50.746;7.072;2023-01-29T06:18:55;-3.30;99.90
33717;DHT22;20046;50.746;7.072;2023-01-29T06:21:21;-3.20;99.90
33717;DHT22;20046;50.746;7.072;2023-01-29T06:23:46;-3.30;99.90
33717;DHT22;20046;50.746;7.072;2023-01-29T06:26:13;-3.30;99.90
33717;DHT22;20046;50.746;7.072;2023-01-29T06:28:40;-3.30;99.90
33717;DHT22;20046;50.746;7.072;2023-01-29T06:31:07;-3.40;99.90
33717;DHT22;20046;50.746;7.072;2023-01-29T06:33:33;-3.40;99.90
33717;DHT22;20046;50.746;7.072;2023-01-29T06:36:00;-3.50;99.90
33717;DHT22;20046;50.746;7.072;2023-01-29T06:38:27;-3.50;99.90
33717;DHT22;20046;50.746;7.072;2023-01-29T06:40:53;-3.60;99.90
33717;DHT22;20046;50.746;7.072;2023-01-29T06:43:19;-3.70;99.90
33717;DHT22;20046;50.746;7.072;2023-01-29T06:45:53;-3.70;99.90
33717;DHT22;20046;50.746;7.072;2023-01-29T06:48:19;-3.80;99.90
33717;DHT22;20046;50.746;7.072;2023-01-29T06:50:45;-3.80;99.90
33717;DHT22;20046;50.746;7.072;2023-01-29T06:53:11;-3.90;99.90
33717;DHT22;20046;50.746;7.072;2023-01-29T06:55:37;-3.90;99.90
33717;DHT22;20046;50.746;7.072;2023-01-29T06:58:06;-3.90;99.90
33717;DHT22;20046;50.746;7.072;2023-01-29T07:00:33;-3.90;99.90
33717;DHT22;20046;50.746;7.072;2023-01-29T07:02:59;-3.90;99.90
33717;DHT22;20046;50.746;7.072;2023-01-29T07:05:25;-4.00;99.90
33717;DHT22;20046;50.746;7.072;2023-01-29T07:07:50;-4.00;99.90
33717;DHT22;20046;50.746;7.072;2023-01-29T07:10:16;-3.90;99.90
33717;DHT22;20046;50.746;7.072;2023-01-29T07:12:41;-3.90;99.90
33717;DHT22;20046;50.746;7.072;2023-01-29T07:15:07;-3.80;99.90
33717;DHT22;20046;50.746;7.072;2023-01-29T07:17:33;-3.70;99.90
33717;DHT22;20046;50.746;7.072;2023-01-29T07:19:59;-3.60;99.90
33717;DHT22;20046;50.746;7.072;2023-01-29T07:22:24;-3.60;99.90
33717;DHT22;20046;50.746;7.072;2023-01-29T07:24:50;-3.50;99.90
33717;DHT22;20046;50.746;7.072;2023-01-29T07:27:15;-3.50;99.90
33717;DHT22;20046;50.746;7.072;2023-01-29T07:29:41;-3.40;99.90
33717;DHT22;20046;50.746;7.072;2023-01-29T07:32:07;-3.40;99.90
33717;DHT22;20046;50.746;7.072;2023-01-29T07:34:32;-3.30;99.90
33717;DHT22;20046;50.746;7.072;2023-01-29T07:36:58;-3.20;99.90
33717;DHT22;20046;50.746;7.072;2023-01-29T07:39:23;-3.10;99.90
33717;DHT22;20046;50.746;7.072;2023-01-29T07:41:49;-2.90;99.90
33717;DHT22;20046;50.746;7.072;2023-01-29T07:44:15;-2.90;99.90
33717;DHT22;20046;50.746;7.072;2023-01-29T07:46:40;-2.80;99.90
33717;DHT22;20046;50.746;7.072;2023-01-29T07:49:07;-2.70;99.90
33717;DHT22;20046;50.746;7.072;2023-01-29T07:51:32;-2.60;99.90
33717;DHT22;20046;50.746;7.072;2023-01-29T07:53:58;-2.50;99.90
33717;DHT22;20046;50.746;7.072;2023-01-29T07:56:23;-2.40;99.90
33717;DHT22;20046;50.746;7.072;2023-01-29T07:58:49;-2.20;99.90
33717;DHT22;20046;50.746;7.072;2023-01-29T08:01:15;-2.10;99.90
33717;DHT22;20046;50.746;7.072;2023-01-29T08:03:40;-2.00;99.90
33717;DHT22;20046;50.746;7.072;2023-01-29T08:06:06;-1.90;99.90
33717;DHT22;20046;50.746;7.072;2023-01-29T08:08:32;-1.80;99.90
33717;DHT22;20046;50.746;7.072;2023-01-29T08:11:01;-1.70;99.90
33717;DHT22;20046;50.746;7.072;2023-01-29T08:13:27;-1.60;99.90
33717;DHT22;20046;50.746;7.072;2023-01-29T08:15:52;-1.50;99.90
33717;DHT22;20046;50.746;7.072;2023-01-29T08:18:18;-1.40;99.90
33717;DHT22;20046;50.746;7.072;2023-01-29T08:20:43;-1.40;99.90
33717;DHT22;20046;50.746;7.072;2023-01-29T08:23:13;-1.40;99.90
33717;DHT22;20046;50.746;7.072;2023-01-29T08:25:39;-1.30;99.90
33717;DHT22;20046;50.746;7.072;2023-01-29T08:28:05;-1.30;99.90
33717;DHT22;20046;50.746;7.072;2023-01-29T08:30:32;-1.30;99.90
33717;DHT22;20046;50.746;7.072;2023-01-29T08:32:58;-1.20;99.90
33717;DHT22;20046;50.746;7.072;2023-01-29T08:35:25;-1.20;99.90
33717;DHT22;20046;50.746;7.072;2023-01-29T08:37:55;-1.20;99.90
33717;DHT22;20046;50.746;7.072;2023-01-29T08:40:21;-1.20;99.90
33717;DHT22;20046;50.746;7.072;2023-01-29T08:42:46;-1.20;99.90
33717;DHT22;20046;50.746;7.072;2023-01-29T08:45:12;-1.10;99.90
33717;DHT22;20046;50.746;7.072;2023-01-29T08:47:43;-1.10;99.90
33717;DHT22;20046;50.746;7.072;2023-01-29T08:50:09;-1.00;99.90
33717;DHT22;20046;50.746;7.072;2023-01-29T08:52:35;-1.00;99.90
33717;DHT22;20046;50.746;7.072;2023-01-29T08:55:00;-0.90;99.90
33717;DHT22;20046;50.746;7.072;2023-01-29T08:57:26;-0.90;99.90
33717;DHT22;20046;50.746;7.072;2023-01-29T08:59:51;-0.90;99.90
33717;DHT22;20046;50.746;7.072;2023-01-29T09:02:17;-0.80;99.90
33717;DHT22;20046;50.746;7.072;2023-01-29T09:04:43;-0.80;99.90
33717;DHT22;20046;50.746;7.072;2023-01-29T09:07:08;-0.80;99.90
33717;DHT22;20046;50.746;7.072;2023-01-29T09:09:34;-0.70;99.90
33717;DHT22;20046;50.746;7.072;2023-01-29T09:11:59;-0.70;99.90
33717;DHT22;20046;50.746;7.072;2023-01-29T09:14:25;-0.60;99.90
33717;DHT22;20046;50.746;7.072;2023-01-29T09:16:51;-0.50;99.90
33717;DHT22;20046;50.746;7.072;2023-01-29T09:19:17;-0.50;99.90
33717;DHT22;20046;50.746;7.072;2023-01-29T09:21:43;-0.40;99.90
33717;DHT22;20046;50.746;7.072;2023-01-29T09:24:08;-0.40;99.90
33717;DHT22;20046;50.746;7.072;2023-01-29T09:26:35;-0.30;99.90
33717;DHT22;20046;50.746;7.072;2023-01-29T09:29:00;-0.20;99.90
33717;DHT22;20046;50.746;7.072;2023-01-29T09:31:26;-0.10;99.90
33717;DHT22;20046;50.746;7.072;2023-01-29T09:33:51;0.00;99.90
33717;DHT22;20046;50.746;7.072;2023-01-29T09:36:17;0.10;99.90
33717;DHT22;20046;50.746;7.072;2023-01-29T09:38:43;0.10;99.90
33717;DHT22;20046;50.746;7.072;2023-01-29T09:43:47;0.10;99.90
33717;DHT22;20046;50.746;7.072;2023-01-29T09:46:18;0.00;99.90
33717;DHT22;20046;50.746;7.072;2023-01-29T09:48:45;0.00;99.90
33717;DHT22;20046;50.746;7.072;2023-01-29T09:51:24;0.00;99.90
33717;DHT22;20046;50.746;7.072;2023-01-29T09:56:43;0.20;99.90
33717;DHT22;20046;50.746;7.072;2023-01-29T09:59:11;0.30;99.90
33717;DHT22;20046;50.746;7.072;2023-01-29T10:16:06;0.70;99.90
33717;DHT22;20046;50.746;7.072;2023-01-29T10:24:07;0.90;99.90
33717;DHT22;20046;50.746;7.072;2023-01-29T10:26:35;0.90;99.90
33717;DHT22;20046;50.746;7.072;2023-01-29T10:29:05;0.90;99.90
33717;DHT22;20046;50.746;7.072;2023-01-29T10:31:34;1.00;99.90
33717;DHT22;20046;50.746;7.072;2023-01-29T10:34:32;1.10;99.90
33717;DHT22;20046;50.746;7.072;2023-01-29T10:37:00;1.30;99.90
33717;DHT22;20046;50.746;7.072;2023-01-29T10:39:31;1.40;99.90
33717;DHT22;20046;50.746;7.072;2023-01-29T10:53:38;1.80;99.90
33717;DHT22;20046;50.746;7.072;2023-01-29T10:58:58;1.80;99.90
33717;DHT22;20046;50.746;7.072;2023-01-29T11:01:26;2.00;99.90
33717;DHT22;20046;50.746;7.072;2023-01-29T11:04:00;2.10;99.90
33717;DHT22;20046;50.746;7.072;2023-01-29T11:06:32;2.10;99.90
33717;DHT22;20046;50.746;7.072;2023-01-29T11:12:00;2.20;99.90
33717;DHT22;20046;50.746;7.072;2023-01-29T11:14:43;2.20;99.90
33717;DHT22;20046;50.746;7.072;2023-01-29T11:17:18;2.10;99.90
33717;DHT22;20046;50.746;7.072;2023-01-29T11:19:45;2.10;99.90
33717;DHT22;20046;50.746;7.072;2023-01-29T11:22:19;2.00;99.90
33717;DHT22;20046;50.746;7.072;2023-01-29T11:24:46;2.00;99.90
33717;DHT22;20046;50.746;7.072;2023-01-29T11:27:33;2.00;99.90
33717;DHT22;20046;50.746;7.072;2023-01-29T11:29:59;1.90;99.90
33717;DHT22;20046;50.746;7.072;2023-01-29T11:32:29;2.00;99.90
33717;DHT22;20046;50.746;7.072;2023-01-29T11:34:58;2.10;99.90
33717;DHT22;20046;50.746;7.072;2023-01-29T11:37:41;2.30;99.90
33717;DHT22;20046;50.746;7.072;2023-01-29T11:42:48;3.00;99.90
33717;DHT22;20046;50.746;7.072;2023-01-29T11:47:55;3.30;99.90
33717;DHT22;20046;50.746;7.072;2023-01-29T11:50:24;3.60;99.90
33717;DHT22;20046;50.746;7.072;2023-01-29T11:52:50;3.90;99.90
33717;DHT22;20046;50.746;7.072;2023-01-29T11:55:22;4.20;99.90
33717;DHT22;20046;50.746;7.072;2023-01-29T11:57:57;4.70;99.90
33717;DHT22;20046;50.746;7.072;2023-01-29T12:00:28;5.20;99.90
33717;DHT22;20046;50.746;7.072;2023-01-29T12:05:37;5.70;99.90
33717;DHT22;20046;50.746;7.072;2023-01-29T12:08:15;5.60;99.90
33717;DHT22;20046;50.746;7.072;2023-01-29T12:10:42;5.70;99.90
33717;DHT22;20046;50.746;7.072;2023-01-29T12:15:46;7.30;99.90
33717;DHT22;20046;50.746;7.072;2023-01-29T12:18:35;8.10;99.90
33717;DHT22;20046;50.746;7.072;2023-01-29T12:22:05;10.00;99.90
33717;DHT22;20046;50.746;7.072;2023-01-29T12:26:41;13.20;95.50
33717;DHT22;20046;50.746;7.072;2023-01-29T12:29:50;12.60;93.40
33717;DHT22;20046;50.746;7.072;2023-01-29T12:32:44;13.40;91.60
33717;DHT22;20046;50.746;7.072;2023-01-29T12:35:35;13.70;90.80
33717;DHT22;20046;50.746;7.072;2023-01-29T12:38:20;14.00;86.70
33717;DHT22;20046;50.746;7.072;2023-01-29T12:45:56;10.70;90.30
33717;DHT22;20046;50.746;7.072;2023-01-29T12:48:36;9.70;91.30
33717;DHT22;20046;50.746;7.072;2023-01-29T12:51:10;8.90;92.40
33717;DHT22;20046;50.746;7.072;2023-01-29T12:54:22;8.20;93.30
33717;DHT22;20046;50.746;7.072;2023-01-29T12:56:39;7.70;94.50
33717;DHT22;20046;50.746;7.072;2023-01-29T12:59:27;7.00;95.70
33717;DHT22;20046;50.746;7.072;2023-01-29T13:02:21;6.70;97.00
33717;DHT22;20046;50.746;7.072;2023-01-29T13:04:49;6.60;97.80
33717;DHT22;20046;50.746;7.072;2023-01-29T13:07:22;6.70;98.40
33717;DHT22;20046;50.746;7.072;2023-01-29T13:09:53;7.10;98.30
33717;DHT22;20046;50.746;7.072;2023-01-29T13:12:22;7.20;97.80
33717;DHT22;20046;50.746;7.072;2023-01-29T13:17:32;7.80;97.40
33717;DHT22;20046;50.746;7.072;2023-01-29T13:20:23;7.90;96.90
33717;DHT22;20046;50.746;7.072;2023-01-29T13:22:51;7.70;96.80
33717;DHT22;20046;50.746;7.072;2023-01-29T13:25:19;7.70;97.20
33717;DHT22;20046;50.746;7.072;2023-01-29T13:27:45;7.90;96.80
33717;DHT22;20046;50.746;7.072;2023-01-29T13:30:26;8.20;96.80
33717;DHT22;20046;50.746;7.072;2023-01-29T13:32:53;8.30;96.80
33717;DHT22;20046;50.746;7.072;2023-01-29T13:35:21;8.30;96.80
33717;DHT22;20046;50.746;7.072;2023-01-29T13:37:49;7.90;96.80
33717;DHT22;20046;50.746;7.072;2023-01-29T13:40:24;7.70;97.10
33717;DHT22;20046;50.746;7.072;2023-01-29T13:42:52;7.80;97.70
33717;DHT22;20046;50.746;7.072;2023-01-29T13:45:24;7.60;97.40
33717;DHT22;20046;50.746;7.072;2023-01-29T13:47:51;7.40;97.80
33717;DHT22;20046;50.746;7.072;2023-01-29T13:50:36;7.10;98.20
33717;DHT22;20046;50.746;7.072;2023-01-29T13:53:04;6.90;98.50
33717;DHT22;20046;50.746;7.072;2023-01-29T13:55:39;6.60;98.70
33717;DHT22;20046;50.746;7.072;2023-01-29T13:58:06;6.40;99.40
33717;DHT22;20046;50.746;7.072;2023-01-29T14:05:56;6.50;99.90
33717;DHT22;20046;50.746;7.072;2023-01-29T14:13:49;6.70;99.90
33717;DHT22;20046;50.746;7.072;2023-01-29T14:18:47;7.00;99.90
33717;DHT22;20046;50.746;7.072;2023-01-29T14:23:50;7.40;99.80
33717;DHT22;20046;50.746;7.072;2023-01-29T14:28:59;6.60;99.90
33717;DHT22;20046;50.746;7.072;2023-01-29T14:31:40;6.30;99.90
33717;DHT22;20046;50.746;7.072;2023-01-29T14:34:32;6.20;99.90
33717;DHT22;20046;50.746;7.072;2023-01-29T14:37:17;5.90;99.90
33717;DHT22;20046;50.746;7.072;2023-01-29T14:39:56;5.80;99.90
33717;DHT22;20046;50.746;7.072;2023-01-29T14:42:23;5.50;99.90
33717;DHT22;20046;50.746;7.072;2023-01-29T14:55:49;4.80;99.90
33717;DHT22;20046;50.746;7.072;2023-01-29T14:58:38;4.70;99.90
33717;DHT22;20046;50.746;7.072;2023-01-29T15:01:34;4.60;99.90
33717;DHT22;20046;50.746;7.072;2023-01-29T15:04:03;4.50;99.90
33717;DHT22;20046;50.746;7.072;2023-01-29T15:06:42;4.30;99.90
33717;DHT22;20046;50.746;7.072;2023-01-29T15:12:32;4.20;99.90
33717;DHT22;20046;50.746;7.072;2023-01-29T15:15:12;4.20;99.90
33717;DHT22;20046;50.746;7.072;2023-01-29T15:20:27;4.10;99.90
33717;DHT22;20046;50.746;7.072;2023-01-29T15:22:52;4.00;99.90
33717;DHT22;20046;50.746;7.072;2023-01-29T15:25:18;4.00;99.90
33717;DHT22;20046;50.746;7.072;2023-01-29T15:27:46;3.90;99.90
33717;DHT22;20046;50.746;7.072;2023-01-29T15:30:28;3.90;99.90
33717;DHT22;20046;50.746;7.072;2023-01-29T15:32:56;3.80;99.90
33717;DHT22;20046;50.746;7.072;2023-01-29T15:35:36;3.80;99.90
33717;DHT22;20046;50.746;7.072;2023-01-29T15:38:13;3.70;99.90
33717;DHT22;20046;50.746;7.072;2023-01-29T15:40:39;3.60;99.90
33717;DHT22;20046;50.746;7.072;2023-01-29T15:43:35;3.60;99.90
33717;DHT22;20046;50.746;7.072;2023-01-29T15:46:10;3.60;99.90
33717;DHT22;20046;50.746;7.072;2023-01-29T15:48:39;3.60;99.90
33717;DHT22;20046;50.746;7.072;2023-01-29T15:51:07;3.50;99.90
33717;DHT22;20046;50.746;7.072;2023-01-29T15:53:45;3.50;99.90
33717;DHT22;20046;50.746;7.072;2023-01-29T15:56:16;3.40;99.90
33717;DHT22;20046;50.746;7.072;2023-01-29T15:58:47;3.40;99.90
33717;DHT22;20046;50.746;7.072;2023-01-29T16:01:13;3.30;99.90
33717;DHT22;20046;50.746;7.072;2023-01-29T16:03:39;3.20;99.90
33717;DHT22;20046;50.746;7.072;2023-01-29T16:06:06;3.10;99.90
33717;DHT22;20046;50.746;7.072;2023-01-29T16:08:33;3.10;99.90
33717;DHT22;20046;50.746;7.072;2023-01-29T16:11:03;3.00;99.90
33717;DHT22;20046;50.746;7.072;2023-01-29T16:13:31;3.00;99.90
33717;DHT22;20046;50.746;7.072;2023-01-29T16:18:40;2.90;99.90
33717;DHT22;20046;50.746;7.072;2023-01-29T16:21:13;2.80;99.90
33717;DHT22;20046;50.746;7.072;2023-01-29T16:23:41;2.80;99.90
33717;DHT22;20046;50.746;7.072;2023-01-29T16:26:13;2.70;99.90
33717;DHT22;20046;50.746;7.072;2023-01-29T16:28:44;2.70;99.90
33717;DHT22;20046;50.746;7.072;2023-01-29T16:31:11;2.60;99.90
33717;DHT22;20046;50.746;7.072;2023-01-29T16:33:40;2.60;99.90
33717;DHT22;20046;50.746;7.072;2023-01-29T16:36:20;2.60;99.90
33717;DHT22;20046;50.746;7.072;2023-01-29T16:38:49;2.60;99.90
33717;DHT22;20046;50.746;7.072;2023-01-29T16:41:35;2.50;99.90
33717;DHT22;20046;50.746;7.072;2023-01-29T16:46:47;2.50;99.90
33717;DHT22;20046;50.746;7.072;2023-01-29T16:51:50;2.50;99.90
33717;DHT22;20046;50.746;7.072;2023-01-29T16:54:18;2.50;99.90
33717;DHT22;20046;50.746;7.072;2023-01-29T16:56:49;2.40;99.90
33717;DHT22;20046;50.746;7.072;2023-01-29T16:59:22;2.50;99.90
33717;DHT22;20046;50.746;7.072;2023-01-29T17:01:52;2.50;99.90
33717;DHT22;20046;50.746;7.072;2023-01-29T17:04:19;2.50;99.90
33717;DHT22;20046;50.746;7.072;2023-01-29T17:06:47;2.40;99.90
33717;DHT22;20046;50.746;7.072;2023-01-29T17:09:27;2.40;99.90
33717;DHT22;20046;50.746;7.072;2023-01-29T17:12:05;2.40;99.90
33717;DHT22;20046;50.746;7.072;2023-01-29T17:14:32;2.40;99.90
33717;DHT22;20046;50.746;7.072;2023-01-29T17:17:05;2.40;99.90
33717;DHT22;20046;50.746;7.072;2023-01-29T17:19:30;2.40;99.90
33717;DHT22;20046;50.746;7.072;2023-01-29T17:21:57;2.50;99.90
33717;DHT22;20046;50.746;7.072;2023-01-29T17:24:24;2.40;99.90
33717;DHT22;20046;50.746;7.072;2023-01-29T17:26:50;2.50;99.90
33717;DHT22;20046;50.746;7.072;2023-01-29T17:29:22;2.40;99.90
33717;DHT22;20046;50.746;7.072;2023-01-29T17:31:48;2.40;99.90
33717;DHT22;20046;50.746;7.072;2023-01-29T17:34:15;2.40;99.90
33717;DHT22;20046;50.746;7.072;2023-01-29T17:36:41;2.40;99.90
33717;DHT22;20046;50.746;7.072;2023-01-29T17:39:17;2.40;99.90
33717;DHT22;20046;50.746;7.072;2023-01-29T17:41:49;2.50;99.90
33717;DHT22;20046;50.746;7.072;2023-01-29T17:44:15;2.50;99.90
33717;DHT22;20046;50.746;7.072;2023-01-29T17:46:41;2.50;99.90
33717;DHT22;20046;50.746;7.072;2023-01-29T17:49:21;2.50;99.90
33717;DHT22;20046;50.746;7.072;2023-01-29T17:51:48;2.50;99.90
33717;DHT22;20046;50.746;7.072;2023-01-29T17:54:14;2.50;99.90
33717;DHT22;20046;50.746;7.072;2023-01-29T17:56:40;2.50;99.90
33717;DHT22;20046;50.746;7.072;2023-01-29T17:59:29;2.50;99.90
33717;DHT22;20046;50.746;7.072;2023-01-29T18:01:54;2.50;99.90
33717;DHT22;20046;50.746;7.072;2023-01-29T18:04:20;2.50;99.90
33717;DHT22;20046;50.746;7.072;2023-01-29T18:06:47;2.60;99.90
33717;DHT22;20046;50.746;7.072;2023-01-29T18:09:15;2.60;99.90
33717;DHT22;20046;50.746;7.072;2023-01-29T18:11:41;2.60;99.90
33717;DHT22;20046;50.746;7.072;2023-01-29T18:14:08;2.60;99.90
33717;DHT22;20046;50.746;7.072;2023-01-29T18:16:34;2.60;99.90
33717;DHT22;20046;50.746;7.072;2023-01-29T18:19:15;2.60;99.90
33717;DHT22;20046;50.746;7.072;2023-01-29T18:21:42;2.60;99.90
33717;DHT22;20046;50.746;7.072;2023-01-29T18:24:08;2.50;99.90
33717;DHT22;20046;50.746;7.072;2023-01-29T18:26:34;2.50;99.90
33717;DHT22;20046;50.746;7.072;2023-01-29T18:29:00;2.50;99.90
33717;DHT22;20046;50.746;7.072;2023-01-29T18:31:25;2.50;99.90
33717;DHT22;20046;50.746;7.072;2023-01-29T18:33:51;2.50;99.90
33717;DHT22;20046;50.746;7.072;2023-01-29T18:36:16;2.40;99.90
33717;DHT22;20046;50.746;7.072;2023-01-29T18:38:42;2.40;99.90
33717;DHT22;20046;50.746;7.072;2023-01-29T18:41:09;2.40;99.90